createdAt,value
2022-11-30T00:01:30.758Z,1.95
2022-11-30T00:03:58.289Z,1.98
2022-11-30T00:06:25.954Z,1.99
2022-11-30T00:08:57.589Z,2.02
2022-11-30T00:11:27.413Z,1.96
2022-11-30T00:13:54.809Z,2.00
2022-11-30T00:16:22.996Z,1.99
2022-11-30T00:18:50.808Z,2.04
2022-11-30T00:21:18.628Z,1.99
2022-11-30T00:23:46.642Z,1.94
2022-11-30T00:26:16.508Z,1.99
2022-11-30T00:28:45.368Z,1.95
2022-11-30T00:31:15.130Z,2.05
2022-11-30T00:33:42.769Z,1.99
2022-11-30T00:36:16.404Z,1.96
2022-11-30T00:38:44.806Z,1.98
2022-11-30T00:41:12.979Z,1.97
2022-11-30T00:43:40.685Z,1.97
2022-11-30T00:46:11.506Z,1.97
2022-11-30T00:48:40.569Z,1.97
2022-11-30T00:51:10.004Z,1.98
2022-11-30T00:53:38.068Z,2.03
2022-11-30T00:56:06.375Z,1.96
2022-11-30T00:58:34.166Z,1.96
2022-11-30T01:01:01.520Z,1.98
2022-11-30T01:03:28.849Z,1.94
2022-11-30T01:06:01.776Z,1.92
2022-11-30T01:08:29.128Z,1.99
2022-11-30T01:10:57.861Z,2.03
2022-11-30T01:13:25.478Z,2.07
2022-11-30T01:15:52.846Z,1.97
2022-11-30T01:18:20.245Z,1.97
2022-11-30T01:20:47.552Z,1.95
2022-11-30T01:23:14.928Z,1.95
2022-11-30T01:25:42.299Z,1.94
2022-11-30T01:28:10.463Z,1.99
2022-11-30T01:30:37.878Z,1.95
2022-11-30T01:33:06.146Z,1.89
2022-11-30T01:35:33.539Z,1.89
2022-11-30T01:38:01.032Z,1.92
2022-11-30T01:40:28.363Z,1.90
2022-11-30T01:42:55.707Z,1.91
2022-11-30T01:45:23.376Z,1.91
2022-11-30T01:47:57.110Z,1.89
2022-11-30T01:50:33.351Z,1.86
2022-11-30T01:53:03.672Z,1.89
2022-11-30T01:55:31.068Z,1.85
2022-11-30T01:58:06.351Z,1.85
2022-11-30T02:00:33.948Z,1.88
2022-11-30T02:03:04.238Z,1.83
2022-11-30T02:05:33.264Z,1.86
2022-11-30T02:08:01.034Z,1.84
2022-11-30T02:10:30.199Z,1.85
2022-11-30T02:13:17.406Z,1.83
2022-11-30T02:15:57.983Z,1.80
2022-11-30T02:18:56.430Z,1.79
2022-11-30T02:21:23.733Z,1.76
2022-11-30T02:24:19.198Z,1.75
2022-11-30T02:27:01.240Z,1.78
2022-11-30T02:29:34.138Z,1.78
2022-11-30T02:32:09.076Z,1.77
2022-11-30T02:34:39.804Z,1.73
2022-11-30T02:37:09.731Z,1.72
2022-11-30T02:39:37.112Z,1.84
2022-11-30T02:42:10.826Z,1.76
2022-11-30T02:44:39.053Z,1.76
2022-11-30T02:47:15.238Z,1.78
2022-11-30T02:49:58.693Z,1.70
2022-11-30T02:52:28.117Z,1.81
2022-11-30T02:55:01.150Z,1.76
2022-11-30T02:57:28.476Z,1.81
2022-11-30T02:59:56.985Z,1.78
2022-11-30T03:02:24.323Z,1.73
2022-11-30T03:04:52.312Z,1.80
2022-11-30T03:07:19.796Z,1.70
2022-11-30T03:09:47.408Z,1.66
2022-11-30T03:12:14.629Z,1.66
2022-11-30T03:14:41.932Z,1.62
2022-11-30T03:17:09.555Z,1.62
2022-11-30T03:19:38.525Z,1.58
2022-11-30T03:22:06.050Z,1.54
2022-11-30T03:24:33.355Z,1.63
2022-11-30T03:27:01.060Z,1.60
2022-11-30T03:29:28.475Z,1.58
2022-11-30T03:31:55.787Z,1.63
2022-11-30T03:34:26.412Z,1.58
2022-11-30T03:36:54.531Z,1.57
2022-11-30T03:39:24.362Z,1.61
2022-11-30T03:41:52.147Z,1.57
2022-11-30T03:44:19.654Z,1.48
2022-11-30T03:46:46.982Z,1.44
2022-11-30T03:49:14.376Z,1.39
2022-11-30T03:51:42.091Z,1.26
2022-11-30T03:54:09.439Z,1.33
2022-11-30T03:56:36.828Z,1.24
2022-11-30T03:59:04.468Z,1.26
2022-11-30T04:01:31.956Z,1.23
2022-11-30T04:03:59.535Z,1.19
2022-11-30T04:06:26.894Z,1.24
2022-11-30T04:08:54.272Z,1.29
2022-11-30T04:11:21.632Z,1.14
2022-11-30T04:13:48.960Z,1.10
2022-11-30T04:16:16.361Z,1.03
2022-11-30T04:18:43.636Z,1.00
2022-11-30T04:21:11.743Z,1.01
2022-11-30T04:23:40.566Z,0.96
2022-11-30T04:26:11.431Z,0.93
2022-11-30T04:28:38.809Z,0.88
2022-11-30T04:31:06.394Z,0.89
2022-11-30T04:33:33.678Z,0.86
2022-11-30T04:36:04.530Z,0.81
2022-11-30T04:38:32.862Z,0.84
2022-11-30T04:41:00.613Z,0.81
2022-11-30T04:43:27.852Z,0.83
2022-11-30T04:45:55.250Z,0.77
2022-11-30T04:48:22.670Z,0.71
2022-11-30T04:50:50.135Z,0.71
2022-11-30T04:53:17.373Z,0.70
2022-11-30T04:55:44.699Z,0.71
2022-11-30T04:58:12.092Z,0.71
2022-11-30T05:00:39.433Z,0.72
2022-11-30T05:03:06.935Z,0.71
2022-11-30T05:05:34.270Z,0.70
2022-11-30T05:08:01.898Z,0.73
2022-11-30T05:10:30.126Z,0.70
2022-11-30T05:12:58.366Z,0.73
2022-11-30T05:15:26.233Z,0.78
2022-11-30T05:17:53.389Z,0.77
2022-11-30T05:20:20.559Z,0.78
2022-11-30T05:22:48.856Z,0.78
2022-11-30T05:25:16.351Z,0.77
2022-11-30T05:27:43.688Z,0.80
2022-11-30T05:30:11.910Z,0.79
2022-11-30T05:32:39.276Z,0.79
2022-11-30T05:35:06.826Z,0.78
2022-11-30T05:37:35.473Z,0.78
2022-11-30T05:40:03.041Z,0.85
2022-11-30T05:42:30.704Z,0.82
2022-11-30T05:44:58.110Z,0.80
2022-11-30T05:47:25.562Z,0.76
2022-11-30T05:49:52.916Z,0.76
2022-11-30T05:52:20.404Z,0.77
2022-11-30T05:54:48.212Z,0.79
2022-11-30T05:57:15.910Z,0.77
2022-11-30T05:59:43.333Z,0.74
2022-11-30T06:02:11.127Z,0.69
2022-11-30T06:04:38.620Z,0.71
2022-11-30T06:07:06.008Z,0.69
2022-11-30T06:09:33.296Z,0.63
2022-11-30T06:12:00.792Z,0.57
2022-11-30T06:14:28.181Z,0.59
2022-11-30T06:16:55.583Z,0.59
2022-11-30T06:19:22.935Z,0.55
2022-11-30T06:21:50.240Z,0.54
2022-11-30T06:24:17.735Z,0.52
2022-11-30T06:26:45.101Z,0.54
2022-11-30T06:29:12.460Z,0.48
2022-11-30T06:31:39.881Z,0.49
2022-11-30T06:34:07.361Z,0.44
2022-11-30T06:36:36.421Z,0.44
2022-11-30T06:39:07.121Z,0.40
2022-11-30T06:41:34.673Z,0.36
2022-11-30T06:44:02.035Z,0.34
2022-11-30T06:46:29.473Z,0.34
2022-11-30T06:48:57.092Z,0.35
2022-11-30T06:51:24.491Z,0.34
2022-11-30T06:53:51.784Z,0.34
2022-11-30T06:56:19.255Z,0.34
2022-11-30T06:58:46.645Z,0.32
2022-11-30T07:01:15.502Z,0.31
2022-11-30T07:03:43.702Z,0.34
2022-11-30T07:06:13.556Z,0.34
2022-11-30T07:08:42.121Z,0.34
2022-11-30T07:11:11.341Z,0.35
2022-11-30T07:13:38.908Z,0.34
2022-11-30T07:16:08.436Z,0.39
2022-11-30T07:18:36.162Z,0.35
2022-11-30T07:21:05.151Z,0.37
2022-11-30T07:23:56.230Z,0.33
2022-11-30T07:26:25.472Z,0.34
2022-11-30T07:28:55.440Z,0.36
2022-11-30T07:31:26.115Z,0.45
2022-11-30T07:33:53.699Z,0.47
2022-11-30T07:36:22.480Z,0.53
2022-11-30T07:38:50.030Z,0.64
2022-11-30T07:41:17.607Z,0.67
2022-11-30T07:43:44.997Z,0.76
2022-11-30T07:46:14.484Z,0.95
2022-11-30T07:48:42.900Z,0.93
2022-11-30T07:51:14.330Z,1.16
2022-11-30T07:53:42.119Z,1.39
2022-11-30T07:56:19.306Z,1.50
2022-11-30T07:58:47.924Z,1.93
2022-11-30T08:01:18.227Z,2.40
2022-11-30T08:03:46.050Z,2.65
2022-11-30T08:06:17.011Z,2.62
2022-11-30T08:08:45.368Z,2.41
2022-11-30T08:11:15.818Z,2.72
2022-11-30T08:13:43.728Z,3.20
2022-11-30T08:16:12.694Z,3.48
2022-11-30T08:18:41.233Z,3.18
2022-11-30T08:21:10.965Z,3.01
2022-11-30T08:23:43.850Z,3.07
2022-11-30T08:26:15.734Z,3.20
2022-11-30T08:28:44.565Z,3.37
2022-11-30T08:31:15.554Z,3.47
2022-11-30T08:33:43.414Z,3.33
2022-11-30T08:36:19.573Z,3.34
2022-11-30T08:38:49.265Z,3.36
2022-11-30T08:41:19.819Z,3.46
2022-11-30T08:43:48.004Z,3.71
2022-11-30T08:46:49.187Z,3.74
2022-11-30T08:49:22.689Z,3.46
2022-11-30T08:54:45.220Z,2.89
2022-11-30T08:57:13.313Z,2.77
2022-11-30T08:59:40.595Z,2.79
2022-11-30T09:02:14.213Z,2.73
2022-11-30T09:04:42.095Z,2.74
2022-11-30T09:07:09.706Z,2.80
2022-11-30T09:09:37.858Z,2.82
2022-11-30T09:12:06.852Z,2.79
2022-11-30T09:14:34.189Z,2.57
2022-11-30T09:17:01.546Z,2.59
2022-11-30T09:19:28.826Z,2.63
2022-11-30T09:21:56.247Z,2.72
2022-11-30T09:24:23.609Z,2.91
2022-11-30T09:26:50.968Z,3.01
2022-11-30T09:29:18.354Z,3.14
2022-11-30T09:31:46.120Z,3.62
2022-11-30T09:34:13.510Z,3.95
2022-11-30T09:36:40.818Z,4.03
2022-11-30T09:39:10.492Z,3.91
2022-11-30T09:41:43.824Z,4.18
2022-11-30T09:44:59.205Z,4.18
2022-11-30T09:47:55.999Z,3.60
2022-11-30T09:50:28.516Z,3.68
2022-11-30T09:53:06.392Z,3.81
2022-11-30T09:55:40.168Z,3.84
2022-11-30T09:58:11.924Z,3.56
2022-11-30T10:00:39.617Z,3.85
2022-11-30T10:03:07.229Z,3.70
2022-11-30T10:05:44.585Z,3.80
2022-11-30T10:08:38.975Z,3.70
2022-11-30T10:11:32.496Z,3.95
2022-11-30T10:14:16.235Z,3.90
2022-11-30T10:16:58.339Z,3.63
2022-11-30T10:19:57.096Z,3.69
2022-11-30T10:22:40.176Z,3.85
2022-11-30T10:25:33.645Z,3.92
2022-11-30T10:28:44.883Z,4.07
2022-11-30T10:31:08.901Z,4.11
2022-11-30T10:33:43.626Z,3.66
2022-11-30T10:36:18.114Z,3.43
2022-11-30T10:38:50.020Z,3.25
2022-11-30T10:41:26.589Z,3.26
2022-11-30T10:43:56.865Z,3.35
2022-11-30T10:46:28.246Z,3.27
2022-11-30T10:49:08.099Z,3.35
2022-11-30T10:51:41.094Z,3.44
2022-11-30T10:54:19.780Z,3.58
2022-11-30T10:56:47.424Z,3.57
2022-11-30T10:59:25.521Z,3.77
2022-11-30T11:01:53.603Z,3.91
2022-11-30T11:04:22.910Z,4.09
2022-11-30T11:07:00.181Z,3.92
2022-11-30T11:09:33.754Z,4.03
2022-11-30T11:12:04.567Z,4.12
2022-11-30T11:14:37.709Z,4.16
2022-11-30T11:17:26.318Z,4.18
2022-11-30T11:19:53.753Z,4.06
2022-11-30T11:22:24.803Z,4.13
2022-11-30T11:25:07.642Z,4.23
2022-11-30T11:27:38.645Z,4.07
2022-11-30T11:30:32.305Z,3.92
2022-11-30T11:33:03.599Z,4.07
2022-11-30T11:35:47.010Z,4.23
2022-11-30T11:38:41.849Z,4.33
2022-11-30T11:41:37.611Z,4.16
2022-11-30T11:44:23.030Z,4.06
2022-11-30T11:47:02.383Z,3.89
2022-11-30T11:49:34.551Z,3.73
2022-11-30T11:52:03.052Z,3.65
2022-11-30T11:54:36.530Z,3.47
2022-11-30T11:57:09.574Z,3.32
2022-11-30T11:59:58.232Z,3.29
2022-11-30T12:02:37.753Z,3.26
2022-11-30T12:05:26.851Z,3.26
2022-11-30T12:08:06.013Z,3.24
2022-11-30T12:10:56.603Z,3.28
2022-11-30T12:13:32.815Z,3.09
2022-11-30T12:16:16.072Z,3.13
2022-11-30T12:19:08.675Z,3.15
2022-11-30T12:21:52.195Z,3.09
2022-11-30T12:24:43.778Z,3.35
2022-11-30T12:27:42.909Z,3.66
2022-11-30T12:30:24.848Z,3.84
2022-11-30T12:33:25.108Z,3.67
2022-11-30T12:36:07.938Z,3.44
2022-11-30T12:38:47.803Z,3.55
2022-11-30T12:41:24.276Z,3.46
2022-11-30T12:44:09.433Z,3.43
2022-11-30T12:46:51.855Z,3.25
2022-11-30T12:49:28.396Z,3.21
2022-11-30T12:52:30.058Z,3.31
2022-11-30T12:55:10.195Z,3.16
2022-11-30T12:57:58.844Z,3.19
2022-11-30T13:00:36.032Z,3.28
2022-11-30T13:03:23.202Z,3.30
2022-11-30T13:06:07.325Z,3.28
2022-11-30T13:08:37.739Z,3.30
2022-11-30T13:11:24.555Z,3.16
2022-11-30T13:13:56.336Z,3.26
2022-11-30T13:16:25.627Z,3.17
2022-11-30T13:18:58.807Z,3.16
2022-11-30T13:21:36.557Z,3.14
2022-11-30T13:24:07.041Z,3.11
2022-11-30T13:26:58.576Z,3.14
2022-11-30T13:29:34.984Z,3.09
2022-11-30T13:32:05.958Z,3.10
2022-11-30T13:34:33.533Z,3.29
2022-11-30T13:37:05.408Z,3.52
2022-11-30T13:39:47.752Z,3.29
2022-11-30T13:42:32.332Z,3.34
2022-11-30T13:45:18.534Z,3.32
2022-11-30T13:47:51.528Z,3.38
2022-11-30T13:50:37.331Z,3.37
2022-11-30T13:53:04.725Z,3.39
2022-11-30T13:55:53.977Z,3.25
2022-11-30T13:58:21.396Z,3.29
2022-11-30T14:01:21.244Z,3.27
2022-11-30T14:04:22.828Z,3.30
2022-11-30T14:06:59.386Z,3.37
2022-11-30T14:09:41.966Z,3.24
2022-11-30T14:12:33.897Z,3.21
2022-11-30T14:15:02.580Z,3.18
2022-11-30T14:17:35.164Z,3.22
2022-11-30T14:20:15.532Z,3.15
2022-11-30T14:22:44.288Z,3.10
2022-11-30T14:25:21.063Z,3.05
2022-11-30T14:27:55.579Z,3.11
2022-11-30T14:30:24.258Z,3.07
2022-11-30T14:33:05.432Z,3.06
2022-11-30T14:35:35.839Z,3.02
2022-11-30T14:38:14.190Z,2.92
2022-11-30T14:40:51.017Z,2.89
2022-11-30T14:43:19.045Z,2.82
2022-11-30T14:46:06.423Z,2.71
2022-11-30T14:48:35.870Z,2.63
2022-11-30T14:51:06.754Z,2.63
2022-11-30T14:53:56.262Z,2.67
2022-11-30T14:56:36.931Z,2.56
2022-11-30T14:59:28.861Z,2.57
2022-11-30T15:02:02.829Z,2.54
2022-11-30T15:04:31.080Z,2.54
2022-11-30T15:06:59.351Z,2.49
2022-11-30T15:09:31.585Z,2.45
2022-11-30T15:12:00.028Z,2.49
2022-11-30T15:14:27.534Z,2.49
2022-11-30T15:16:57.246Z,2.48
2022-11-30T15:19:34.428Z,2.51
2022-11-30T15:22:01.934Z,2.59
2022-11-30T15:24:29.974Z,2.72
2022-11-30T15:27:07.112Z,2.76
2022-11-30T15:29:49.058Z,2.68
2022-11-30T15:32:20.076Z,2.61
2022-11-30T15:34:56.529Z,2.63
2022-11-30T15:37:42.700Z,2.62
2022-11-30T15:40:15.071Z,2.76
2022-11-30T15:42:44.069Z,2.69
2022-11-30T15:45:22.158Z,2.71
2022-11-30T15:47:50.796Z,2.70
2022-11-30T15:50:28.631Z,2.69
2022-11-30T15:53:01.466Z,2.70
2022-11-30T15:55:45.860Z,2.63
2022-11-30T15:58:31.823Z,2.74
2022-11-30T16:01:21.015Z,2.70
2022-11-30T16:04:03.842Z,2.69
2022-11-30T16:06:52.535Z,2.70
2022-11-30T16:09:24.451Z,2.71
2022-11-30T16:11:57.420Z,2.76
2022-11-30T16:14:24.869Z,2.71
2022-11-30T16:16:53.898Z,2.69
2022-11-30T16:19:22.502Z,2.68
2022-11-30T16:21:50.418Z,2.70
2022-11-30T16:24:17.929Z,2.85
2022-11-30T16:26:52.571Z,2.71
2022-11-30T16:29:20.562Z,2.67
2022-11-30T16:31:48.193Z,2.66
2022-11-30T16:34:15.710Z,2.86
2022-11-30T16:36:43.049Z,2.90
2022-11-30T16:39:12.465Z,2.80
2022-11-30T16:41:39.986Z,2.74
2022-11-30T16:44:13.358Z,2.83
2022-11-30T16:46:40.771Z,2.78
2022-11-30T16:49:08.739Z,2.76
2022-11-30T16:51:36.716Z,2.84
2022-11-30T16:54:09.250Z,2.96
2022-11-30T16:56:36.575Z,2.82
2022-11-30T16:59:04.765Z,2.75
2022-11-30T17:01:36.718Z,2.68
2022-11-30T17:04:17.248Z,2.56
2022-11-30T17:06:48.289Z,2.44
2022-11-30T17:09:20.102Z,2.16
2022-11-30T17:11:50.488Z,2.29
2022-11-30T17:14:19.744Z,2.31
2022-11-30T17:16:47.190Z,2.26
2022-11-30T17:19:14.644Z,2.17
2022-11-30T17:21:44.582Z,2.14
2022-11-30T17:24:13.617Z,2.05
2022-11-30T17:26:41.268Z,1.99
2022-11-30T17:29:08.760Z,1.97
2022-11-30T17:31:37.021Z,2.01
2022-11-30T17:34:04.368Z,2.01
2022-11-30T17:36:31.901Z,2.03
2022-11-30T17:38:59.287Z,2.05
2022-11-30T17:41:26.562Z,1.89
2022-11-30T17:43:53.914Z,1.77
2022-11-30T17:46:22.696Z,1.74
2022-11-30T17:48:50.317Z,1.67
2022-11-30T17:51:17.727Z,1.72
2022-11-30T17:53:45.358Z,1.71
2022-11-30T17:56:15.161Z,1.84
2022-11-30T17:58:44.872Z,1.82
2022-11-30T18:01:18.408Z,1.78
2022-11-30T18:03:46.280Z,1.68
2022-11-30T18:06:14.373Z,1.76
2022-11-30T18:08:42.205Z,1.63
2022-11-30T18:11:11.493Z,1.62
2022-11-30T18:13:39.613Z,1.62
2022-11-30T18:16:24.796Z,1.46
2022-11-30T18:18:53.955Z,1.41
2022-11-30T18:21:23.614Z,1.39
2022-11-30T18:23:53.150Z,1.35
2022-11-30T18:26:23.791Z,1.35
2022-11-30T18:28:56.024Z,1.27
2022-11-30T18:31:24.206Z,1.16
2022-11-30T18:33:56.100Z,1.13
2022-11-30T18:36:23.962Z,1.03
2022-11-30T18:38:51.394Z,1.03
2022-11-30T18:41:18.771Z,0.94
2022-11-30T18:43:46.153Z,0.92
2022-11-30T18:46:13.725Z,0.88
2022-11-30T18:48:41.954Z,0.85
2022-11-30T18:51:15.162Z,0.72
2022-11-30T18:53:43.833Z,0.77
2022-11-30T18:56:19.947Z,0.69
2022-11-30T18:58:48.263Z,0.64
2022-11-30T19:01:18.777Z,0.71
2022-11-30T19:03:57.637Z,0.75
2022-11-30T19:06:28.512Z,0.82
2022-11-30T19:08:57.171Z,0.77
2022-11-30T19:11:25.137Z,0.75
2022-11-30T19:13:57.897Z,0.69
2022-11-30T19:16:27.619Z,0.75
2022-11-30T19:18:55.913Z,0.76
2022-11-30T19:21:23.439Z,0.65
2022-11-30T19:23:50.973Z,0.58
2022-11-30T19:26:18.315Z,0.55
2022-11-30T19:28:46.287Z,0.52
2022-11-30T19:31:15.603Z,0.46
2022-11-30T19:33:45.419Z,0.46
2022-11-30T19:36:15.860Z,0.50
2022-11-30T19:38:43.933Z,0.38
2022-11-30T19:41:13.216Z,0.31
2022-11-30T19:43:41.197Z,0.33
2022-11-30T19:46:09.930Z,0.28
2022-11-30T19:48:37.631Z,0.25
2022-11-30T19:51:06.842Z,0.15
2022-11-30T19:53:35.338Z,0.10
2022-11-30T19:56:19.400Z,0.07
2022-11-30T19:58:47.027Z,0.11
2022-11-30T20:01:24.786Z,0.02
2022-11-30T20:03:54.771Z,0.00
2022-11-30T20:06:26.540Z,-0.10
2022-11-30T20:08:55.662Z,-0.25
2022-11-30T20:11:25.735Z,-0.32
2022-11-30T20:13:53.880Z,-0.33
2022-11-30T20:16:22.973Z,-0.44
2022-11-30T20:19:03.401Z,-0.48
2022-11-30T20:21:40.804Z,-0.53
2022-11-30T20:24:11.961Z,-0.62
2022-11-30T20:26:42.206Z,-0.70
2022-11-30T20:29:15.010Z,-0.61
2022-11-30T20:31:44.867Z,-0.69
2022-11-30T20:34:12.377Z,-0.74
2022-11-30T20:36:39.795Z,-0.73
2022-11-30T20:39:07.655Z,-0.69
2022-11-30T20:41:35.155Z,-0.68
2022-11-30T20:44:02.574Z,-0.71
2022-11-30T20:46:35.652Z,-0.67
2022-11-30T20:49:10.966Z,-0.63
2022-11-30T20:51:38.307Z,-0.51
2022-11-30T20:54:07.217Z,-0.56
2022-11-30T20:56:37.231Z,-0.49
2022-11-30T20:59:07.616Z,-0.51
2022-11-30T21:01:35.683Z,-0.56
2022-11-30T21:04:03.202Z,-0.43
2022-11-30T21:06:30.815Z,-0.46
2022-11-30T21:08:58.520Z,-0.53
2022-11-30T21:11:27.582Z,-0.53
2022-11-30T21:13:56.269Z,-0.55
2022-11-30T21:16:28.500Z,-0.60
2022-11-30T21:18:59.079Z,-0.56
2022-11-30T21:21:35.278Z,-0.70
2022-11-30T21:24:05.292Z,-0.79
2022-11-30T21:26:38.749Z,-0.83
2022-11-30T21:29:11.273Z,-0.82
2022-11-30T21:31:39.243Z,-0.83
2022-11-30T21:34:06.752Z,-0.81
2022-11-30T21:36:34.187Z,-0.76
2022-11-30T21:39:05.999Z,-0.74
2022-11-30T21:41:35.655Z,-0.67
2022-11-30T21:44:04.218Z,-0.69
2022-11-30T21:46:32.355Z,-0.76
2022-11-30T21:49:00.659Z,-0.75
2022-11-30T21:51:29.600Z,-0.72
2022-11-30T21:54:00.238Z,-0.73
2022-11-30T21:56:30.210Z,-0.69
2022-11-30T21:58:58.281Z,-0.77
2022-11-30T22:01:31.066Z,-0.78
2022-11-30T22:04:00.345Z,-0.62
2022-11-30T22:06:29.132Z,-0.66
2022-11-30T22:09:02.769Z,-0.71
2022-11-30T22:11:31.152Z,-0.77
2022-11-30T22:13:58.735Z,-0.81
2022-11-30T22:16:34.031Z,-0.86
2022-11-30T22:19:06.798Z,-0.89
2022-11-30T22:21:35.083Z,-0.82
2022-11-30T22:24:05.647Z,-0.73
2022-11-30T22:26:38.574Z,-0.78
2022-11-30T22:29:18.542Z,-0.85
2022-11-30T22:31:47.893Z,-0.76
2022-11-30T22:34:15.942Z,-0.86
2022-11-30T22:36:45.283Z,-0.84
2022-11-30T22:39:18.684Z,-0.87
2022-11-30T22:41:49.951Z,-0.83
2022-11-30T22:44:21.986Z,-0.80
2022-11-30T22:46:49.556Z,-0.93
2022-11-30T22:49:21.240Z,-1.01
2022-11-30T22:51:50.325Z,-1.02
2022-11-30T22:54:18.773Z,-1.17
2022-11-30T22:56:46.699Z,-1.25
2022-11-30T22:59:15.414Z,-1.36
2022-11-30T23:01:46.357Z,-1.46
2022-11-30T23:04:19.384Z,-1.46
2022-11-30T23:06:48.376Z,-1.57
2022-11-30T23:09:19.164Z,-1.56
2022-11-30T23:11:47.104Z,-1.55
2022-11-30T23:14:16.361Z,-1.64
2022-11-30T23:16:45.466Z,-1.54
2022-11-30T23:19:14.631Z,-1.53
2022-11-30T23:21:44.979Z,-1.47
2022-11-30T23:24:15.900Z,-1.50
2022-11-30T23:26:43.414Z,-1.45
2022-11-30T23:29:13.684Z,-1.50
2022-11-30T23:31:42.600Z,-1.34
2022-11-30T23:34:15.526Z,-1.24
2022-11-30T23:36:43.047Z,-1.33
2022-11-30T23:39:13.279Z,-1.48
2022-11-30T23:41:41.036Z,-1.50
2022-11-30T23:44:09.845Z,-1.52
2022-11-30T23:46:37.607Z,-1.33
2022-11-30T23:49:04.978Z,-1.45
2022-11-30T23:51:32.220Z,-1.45
2022-11-30T23:53:59.581Z,-1.43
2022-11-30T23:56:27.386Z,-1.47
2022-11-30T23:58:54.599Z,-1.46
